createdAt,value
2019-01-29T00:00:02.193Z,94202.95
2019-01-29T00:02:29.652Z,94201.25
2019-01-29T00:04:57.086Z,94207.09
2019-01-29T00:07:24.498Z,94213.94
2019-01-29T00:09:51.960Z,94212.80
2019-01-29T00:12:19.353Z,94215.14
2019-01-29T00:14:46.757Z,94218.77
2019-01-29T00:17:14.161Z,94223.33
2019-01-29T00:19:41.560Z,94217.17
2019-01-29T00:22:09.043Z,94221.49
2019-01-29T00:24:36.419Z,94219.52
2019-01-29T00:27:03.781Z,94225.49
2019-01-29T00:29:31.235Z,94231.34
2019-01-29T00:31:58.684Z,94224.24
2019-01-29T00:34:26.102Z,94223.28
2019-01-29T00:36:53.564Z,94226.31
2019-01-29T00:39:20.959Z,94224.88
2019-01-29T00:41:48.313Z,94226.57
2019-01-29T00:44:15.767Z,94232.75
2019-01-29T00:46:43.134Z,94243.09
2019-01-29T00:49:10.546Z,94244.13
2019-01-29T00:51:38.040Z,94253.66
2019-01-29T00:54:06.023Z,94254.34
2019-01-29T00:56:33.416Z,94250.11
2019-01-29T00:59:00.842Z,94249.36
2019-01-29T01:01:28.269Z,94253.17
2019-01-29T01:03:55.681Z,94260.00
2019-01-29T01:06:23.272Z,94248.70
2019-01-29T01:08:50.666Z,94261.44
2019-01-29T01:11:18.024Z,94259.15
2019-01-29T01:13:45.460Z,94261.45
2019-01-29T01:16:12.831Z,94254.21
2019-01-29T01:18:40.252Z,94260.77
2019-01-29T01:21:07.806Z,94253.42
2019-01-29T01:23:35.180Z,94262.87
2019-01-29T01:26:02.647Z,94294.19
2019-01-29T01:28:30.019Z,94262.60
2019-01-29T01:30:57.432Z,94272.38
2019-01-29T01:33:24.840Z,94263.52
2019-01-29T01:35:52.284Z,94263.75
2019-01-29T01:38:19.658Z,94263.11
2019-01-29T01:40:47.120Z,94266.29
2019-01-29T01:43:14.522Z,94264.09
2019-01-29T01:45:41.888Z,94271.00
2019-01-29T01:48:09.355Z,94273.69
2019-01-29T01:50:36.738Z,94273.69
2019-01-29T01:53:04.618Z,94282.11
2019-01-29T01:55:31.994Z,94282.11
2019-01-29T01:57:59.361Z,94282.58
2019-01-29T02:00:27.032Z,94281.31
2019-01-29T02:02:54.440Z,94274.31
2019-01-29T02:05:21.907Z,94289.25
2019-01-29T02:07:49.567Z,94294.89
2019-01-29T02:10:22.760Z,94268.30
2019-01-29T02:12:50.156Z,94268.30
2019-01-29T02:15:18.285Z,94278.06
2019-01-29T02:17:45.631Z,94280.30
2019-01-29T02:20:13.299Z,94281.98
2019-01-29T02:22:40.675Z,94282.88
2019-01-29T02:25:08.111Z,94289.12
2019-01-29T02:27:35.487Z,94288.36
2019-01-29T02:30:04.655Z,94297.13
2019-01-29T02:32:32.029Z,94303.86
2019-01-29T02:34:59.482Z,94309.09
2019-01-29T02:37:26.846Z,94306.75
2019-01-29T02:39:54.273Z,94312.64
2019-01-29T02:42:21.639Z,94314.61
2019-01-29T02:44:48.957Z,94309.46
2019-01-29T02:47:16.388Z,94309.24
2019-01-29T02:49:43.762Z,94314.09
2019-01-29T02:52:11.129Z,94321.19
2019-01-29T02:54:38.514Z,94324.89
2019-01-29T02:57:05.999Z,94322.65
2019-01-29T02:59:33.358Z,94322.48
2019-01-29T03:02:00.763Z,94324.16
2019-01-29T03:04:28.122Z,94329.23
2019-01-29T03:06:55.540Z,94333.44
2019-01-29T03:09:22.877Z,94339.20
2019-01-29T03:11:50.256Z,94338.37
2019-01-29T03:14:17.642Z,94338.37
2019-01-29T03:16:45.070Z,94335.99
2019-01-29T03:19:12.441Z,94351.50
2019-01-29T03:21:40.175Z,94351.50
2019-01-29T03:24:07.501Z,94347.73
2019-01-29T03:26:34.850Z,94355.09
2019-01-29T03:29:02.261Z,94355.70
2019-01-29T03:31:29.686Z,94362.89
2019-01-29T03:33:57.036Z,94355.84
2019-01-29T03:36:24.479Z,94349.19
2019-01-29T03:38:51.855Z,94349.19
2019-01-29T03:41:19.275Z,94345.86
2019-01-29T03:43:46.642Z,94346.82
2019-01-29T03:46:14.074Z,94350.45
2019-01-29T03:48:41.523Z,94365.32
2019-01-29T03:51:08.896Z,94365.32
2019-01-29T03:53:38.144Z,94368.86
2019-01-29T03:56:05.641Z,94377.25
2019-01-29T03:58:33.037Z,94379.98
2019-01-29T04:01:00.437Z,94385.80
2019-01-29T04:03:27.859Z,94392.61
2019-01-29T04:05:55.232Z,94394.35
2019-01-29T04:08:22.658Z,94388.33
2019-01-29T04:10:50.042Z,94397.61
2019-01-29T04:13:17.419Z,94398.98
2019-01-29T04:15:44.854Z,94403.22
2019-01-29T04:18:12.264Z,94396.94
2019-01-29T04:20:39.765Z,94400.40
2019-01-29T04:23:07.179Z,94403.89
2019-01-29T04:25:34.558Z,94399.80
2019-01-29T04:28:02.704Z,94399.57
2019-01-29T04:30:30.079Z,94402.53
2019-01-29T04:32:57.446Z,94408.28
2019-01-29T04:35:24.902Z,94413.14
2019-01-29T04:37:52.317Z,94413.14
2019-01-29T04:40:20.155Z,94411.32
2019-01-29T04:42:47.646Z,94416.92
2019-01-29T04:45:15.583Z,94415.56
2019-01-29T04:47:43.087Z,94417.75
2019-01-29T04:50:15.264Z,94413.36
2019-01-29T04:52:42.614Z,94428.72
2019-01-29T04:55:11.360Z,94428.72
2019-01-29T04:57:38.859Z,94420.25
2019-01-29T05:00:09.460Z,94424.27
2019-01-29T05:02:36.841Z,94412.53
2019-01-29T05:05:05.715Z,94412.53
2019-01-29T05:07:33.175Z,94426.09
2019-01-29T05:10:00.627Z,94432.53
2019-01-29T05:12:28.114Z,94425.10
2019-01-29T05:14:55.541Z,94424.94
2019-01-29T05:17:22.975Z,94424.94
2019-01-29T05:19:50.334Z,94431.24
2019-01-29T05:22:17.699Z,94437.52
2019-01-29T05:24:45.114Z,94437.52
2019-01-29T05:27:12.480Z,94448.55
2019-01-29T05:29:39.902Z,94439.76
2019-01-29T05:32:07.791Z,94442.86
2019-01-29T05:34:35.204Z,94447.64
2019-01-29T05:37:02.674Z,94458.38
2019-01-29T05:39:30.105Z,94453.41
2019-01-29T05:41:57.542Z,94457.77
2019-01-29T05:44:24.985Z,94457.09
2019-01-29T05:46:52.394Z,94468.05
2019-01-29T05:49:19.774Z,94468.25
2019-01-29T05:51:47.241Z,94466.27
2019-01-29T05:54:16.349Z,94466.27
2019-01-29T05:56:44.098Z,94471.05
2019-01-29T05:59:11.569Z,94472.88
2019-01-29T06:01:38.975Z,94472.72
2019-01-29T06:04:06.500Z,94480.23
2019-01-29T06:06:33.941Z,94484.17
2019-01-29T06:09:01.355Z,94478.52
2019-01-29T06:11:28.732Z,94482.75
2019-01-29T06:13:56.165Z,94481.84
2019-01-29T06:16:23.526Z,94487.81
2019-01-29T06:18:50.938Z,94491.22
2019-01-29T06:21:18.336Z,94495.31
2019-01-29T06:23:45.695Z,94495.31
2019-01-29T06:26:13.206Z,94504.07
2019-01-29T06:28:40.594Z,94504.07
2019-01-29T06:31:07.997Z,94505.51
2019-01-29T06:33:35.518Z,94506.89
2019-01-29T06:36:03.180Z,94504.68
2019-01-29T06:38:30.540Z,94503.09
2019-01-29T06:40:57.986Z,94511.03
2019-01-29T06:43:25.399Z,94516.61
2019-01-29T06:45:52.930Z,94516.61
2019-01-29T06:48:20.370Z,94519.41
2019-01-29T06:50:47.712Z,94520.82
2019-01-29T06:53:15.121Z,94523.39
2019-01-29T06:55:42.546Z,94533.98
2019-01-29T06:58:09.992Z,94539.98
2019-01-29T07:00:37.330Z,94541.22
2019-01-29T07:03:05.119Z,94542.03
2019-01-29T07:05:32.482Z,94548.58
2019-01-29T07:07:59.887Z,94549.30
2019-01-29T07:10:27.715Z,94548.77
2019-01-29T07:12:55.223Z,94544.75
2019-01-29T07:15:43.386Z,94541.42
2019-01-29T07:18:30.295Z,94544.25
2019-01-29T07:20:57.754Z,94560.14
2019-01-29T07:23:25.158Z,94556.81
2019-01-29T07:25:52.679Z,94563.14
2019-01-29T07:28:20.074Z,94560.59
2019-01-29T07:30:47.959Z,94567.23
2019-01-29T07:33:15.347Z,94572.38
2019-01-29T07:35:42.755Z,94565.16
2019-01-29T07:38:10.115Z,94574.55
2019-01-29T07:40:37.922Z,94561.35
2019-01-29T07:43:06.175Z,94557.28
2019-01-29T07:45:33.518Z,94566.00
2019-01-29T07:48:00.923Z,94561.26
2019-01-29T07:50:28.276Z,94561.84
2019-01-29T07:52:55.677Z,94560.09
2019-01-29T07:55:23.093Z,94566.87
2019-01-29T07:57:50.436Z,94575.60
2019-01-29T08:00:17.807Z,94576.69
2019-01-29T08:02:45.223Z,94578.43
2019-01-29T08:05:14.238Z,94565.80
2019-01-29T08:07:41.835Z,94572.16
2019-01-29T08:10:09.475Z,94577.72
2019-01-29T08:12:36.817Z,94579.90
2019-01-29T08:15:04.729Z,94587.67
2019-01-29T08:17:32.089Z,94587.67
2019-01-29T08:19:59.486Z,94595.81
2019-01-29T08:22:26.882Z,94595.81
2019-01-29T08:25:01.931Z,94597.41
2019-01-29T08:27:23.498Z,94599.45
2019-01-29T08:29:50.918Z,94593.33
2019-01-29T08:32:18.306Z,94592.72
2019-01-29T08:34:45.628Z,94598.14
2019-01-29T08:37:15.184Z,94604.17
2019-01-29T08:39:42.540Z,94596.57
2019-01-29T08:42:09.989Z,94585.31
2019-01-29T08:44:37.345Z,94601.52
2019-01-29T08:47:05.875Z,94601.52
2019-01-29T08:49:33.234Z,94592.13
2019-01-29T08:52:00.604Z,94583.05
2019-01-29T08:54:27.956Z,94591.00
2019-01-29T08:56:55.399Z,94584.47
2019-01-29T08:59:22.739Z,94587.72
2019-01-29T09:01:50.142Z,94592.20
2019-01-29T09:04:17.542Z,94596.74
2019-01-29T09:06:44.913Z,94599.28
2019-01-29T09:09:12.281Z,94599.28
2019-01-29T09:11:39.694Z,94592.22
2019-01-29T09:14:07.045Z,94593.88
2019-01-29T09:16:34.477Z,94591.85
2019-01-29T09:19:01.861Z,94587.84
2019-01-29T09:21:29.574Z,94595.00
2019-01-29T09:23:56.939Z,94589.09
2019-01-29T09:26:24.331Z,94594.31
2019-01-29T09:28:51.665Z,94590.09
2019-01-29T09:31:19.057Z,94596.30
2019-01-29T09:33:46.447Z,94596.30
2019-01-29T09:36:13.833Z,94596.34
2019-01-29T09:38:41.293Z,94595.73
2019-01-29T09:41:09.171Z,94595.39
2019-01-29T09:43:36.732Z,94594.69
2019-01-29T09:46:04.198Z,94590.63
2019-01-29T09:48:31.597Z,94586.43
2019-01-29T09:50:58.942Z,94585.81
2019-01-29T09:53:26.344Z,94581.66
2019-01-29T09:55:53.737Z,94580.13
2019-01-29T09:58:21.078Z,94578.33
2019-01-29T10:00:48.554Z,94579.48
2019-01-29T10:03:16.325Z,94577.69
2019-01-29T10:05:43.668Z,94579.91
2019-01-29T10:08:11.640Z,94580.67
2019-01-29T10:10:38.993Z,94571.55
2019-01-29T10:13:06.411Z,94571.85
2019-01-29T10:15:34.837Z,94563.11
2019-01-29T10:18:02.337Z,94546.44
2019-01-29T10:20:29.848Z,94542.30
2019-01-29T10:22:57.255Z,94545.09
2019-01-29T10:25:24.754Z,94532.70
2019-01-29T10:27:52.198Z,94532.84
2019-01-29T10:30:19.732Z,94534.39
2019-01-29T10:32:47.222Z,94537.31
2019-01-29T10:35:16.317Z,94532.61
2019-01-29T10:37:43.798Z,94521.67
2019-01-29T10:40:13.875Z,94515.00
2019-01-29T10:42:41.256Z,94517.52
2019-01-29T10:45:10.040Z,94514.11
2019-01-29T10:47:37.462Z,94510.89
2019-01-29T10:50:07.331Z,94502.36
2019-01-29T10:52:34.982Z,94491.30
2019-01-29T10:55:02.680Z,94485.81
2019-01-29T10:57:30.190Z,94482.08
2019-01-29T10:59:57.596Z,94474.95
2019-01-29T11:02:25.017Z,94464.77
2019-01-29T11:04:52.403Z,94467.26
2019-01-29T11:07:19.815Z,94464.45
2019-01-29T11:09:48.489Z,94455.91
2019-01-29T11:12:16.118Z,94454.89
2019-01-29T11:14:43.558Z,94454.70
2019-01-29T11:17:11.059Z,94439.52
2019-01-29T11:19:38.476Z,94437.53
2019-01-29T11:22:05.974Z,94433.84
2019-01-29T11:24:33.400Z,94429.44
2019-01-29T11:27:00.824Z,94427.85
2019-01-29T11:29:28.371Z,94421.87
2019-01-29T11:31:56.396Z,94422.52
2019-01-29T11:34:23.806Z,94416.66
2019-01-29T11:36:51.204Z,94419.33
2019-01-29T11:39:18.622Z,94415.97
2019-01-29T11:41:46.035Z,94416.67
2019-01-29T11:44:13.519Z,94412.69
2019-01-29T11:46:41.096Z,94415.79
2019-01-29T11:49:08.598Z,94408.36
2019-01-29T11:51:36.064Z,94403.16
2019-01-29T11:54:03.847Z,94407.85
2019-01-29T11:56:31.291Z,94397.97
2019-01-29T11:58:58.773Z,94392.19
2019-01-29T12:01:27.289Z,94389.80
2019-01-29T12:03:54.721Z,94386.91
2019-01-29T12:06:22.120Z,94378.86
2019-01-29T12:08:49.498Z,94386.80
2019-01-29T12:11:16.969Z,94380.16
2019-01-29T12:13:44.401Z,94368.21
2019-01-29T12:16:11.789Z,94361.31
2019-01-29T12:18:39.147Z,94362.44
2019-01-29T12:21:06.554Z,94360.79
2019-01-29T12:23:33.954Z,94358.22
2019-01-29T12:26:01.602Z,94352.84
2019-01-29T12:28:28.994Z,94349.66
2019-01-29T12:30:56.320Z,94342.86
2019-01-29T12:33:23.858Z,94332.89
2019-01-29T12:35:51.217Z,94333.12
2019-01-29T12:38:18.622Z,94326.91
2019-01-29T12:40:46.005Z,94322.69
2019-01-29T12:43:13.494Z,94320.17
2019-01-29T12:45:40.973Z,94319.90
2019-01-29T12:48:08.623Z,94318.59
2019-01-29T12:50:37.917Z,94314.89
2019-01-29T12:53:10.685Z,94307.13
2019-01-29T12:55:38.082Z,94300.74
2019-01-29T12:58:05.922Z,94295.59
2019-01-29T13:00:36.918Z,94294.79
2019-01-29T13:03:04.607Z,94294.05
2019-01-29T13:05:32.776Z,94286.84
2019-01-29T13:08:00.334Z,94291.34
2019-01-29T13:10:27.836Z,94288.06
2019-01-29T13:12:55.403Z,94275.64
2019-01-29T13:15:25.808Z,94281.00
2019-01-29T13:17:53.227Z,94270.29
2019-01-29T13:20:20.717Z,94267.00
2019-01-29T13:22:48.184Z,94258.78
2019-01-29T13:25:16.112Z,94258.59
2019-01-29T13:27:43.478Z,94248.83
2019-01-29T13:30:27.061Z,94251.58
2019-01-29T13:32:54.452Z,94244.41
2019-01-29T13:35:24.122Z,94240.15
2019-01-29T13:37:51.514Z,94234.10
2019-01-29T13:40:19.159Z,94237.49
2019-01-29T13:42:46.721Z,94233.68
2019-01-29T13:45:14.498Z,94232.47
2019-01-29T13:47:43.484Z,94231.09
2019-01-29T13:50:14.217Z,94228.67
2019-01-29T13:52:41.587Z,94227.41
2019-01-29T13:55:11.207Z,94221.59
2019-01-29T13:57:38.747Z,94220.58
2019-01-29T14:00:12.399Z,94216.19
2019-01-29T14:02:40.007Z,94214.73
2019-01-29T14:05:07.541Z,94203.88
2019-01-29T14:07:34.939Z,94203.47
2019-01-29T14:10:02.506Z,94201.07
2019-01-29T14:12:30.044Z,94200.79
2019-01-29T14:14:57.437Z,94195.75
2019-01-29T14:17:24.881Z,94194.48
2019-01-29T14:19:52.310Z,94188.40
2019-01-29T14:22:19.715Z,94184.19
2019-01-29T14:24:47.172Z,94175.56
2019-01-29T14:27:14.562Z,94172.48
2019-01-29T14:29:41.949Z,94166.89
2019-01-29T14:32:09.496Z,94167.04
2019-01-29T14:34:36.942Z,94154.90
2019-01-29T14:37:04.434Z,94158.24
2019-01-29T14:39:58.104Z,94158.10
2019-01-29T14:42:25.559Z,94153.78
2019-01-29T14:44:54.930Z,94149.07
2019-01-29T14:47:22.947Z,94149.07
2019-01-29T14:49:50.355Z,94146.78
2019-01-29T14:52:17.799Z,94141.29
2019-01-29T14:54:45.856Z,94145.23
2019-01-29T14:57:13.359Z,94139.66
2019-01-29T14:59:40.920Z,94143.03
2019-01-29T15:02:08.428Z,94136.55
2019-01-29T15:04:35.889Z,94134.95
2019-01-29T15:07:03.338Z,94132.55
2019-01-29T15:09:30.803Z,94124.66
2019-01-29T15:11:58.203Z,94127.89
2019-01-29T15:14:26.060Z,94122.00
2019-01-29T15:17:11.838Z,94124.47
2019-01-29T15:19:40.380Z,94116.09
2019-01-29T15:22:08.997Z,94114.34
2019-01-29T15:24:36.566Z,94115.56
2019-01-29T15:27:06.003Z,94091.36
2019-01-29T15:29:33.543Z,94091.36
2019-01-29T15:32:01.037Z,94090.78
2019-01-29T15:34:28.419Z,94087.42
2019-01-29T15:36:55.862Z,94093.41
2019-01-29T15:39:23.299Z,94089.12
2019-01-29T15:41:50.679Z,94098.34
2019-01-29T15:44:18.127Z,94097.09
2019-01-29T15:46:45.703Z,94091.14
2019-01-29T15:49:13.162Z,94092.63
2019-01-29T15:51:40.615Z,94091.78
2019-01-29T15:54:08.158Z,94092.48
2019-01-29T15:56:35.689Z,94082.66
2019-01-29T15:59:03.271Z,94083.82
2019-01-29T16:01:30.720Z,94085.91
2019-01-29T16:03:58.193Z,94084.63
2019-01-29T16:06:25.650Z,94082.59
2019-01-29T16:08:53.100Z,94082.82
2019-01-29T16:11:20.538Z,94077.82
2019-01-29T16:13:47.922Z,94082.59
2019-01-29T16:16:15.533Z,94073.00
2019-01-29T16:18:42.920Z,94082.82
2019-01-29T16:21:10.376Z,94081.66
2019-01-29T16:23:37.800Z,94077.84
2019-01-29T16:26:05.376Z,94075.95
2019-01-29T16:28:32.884Z,94075.03
2019-01-29T16:31:00.317Z,94076.56
2019-01-29T16:33:27.813Z,94073.66
2019-01-29T16:35:55.362Z,94071.94
2019-01-29T16:38:22.832Z,94072.09
2019-01-29T16:40:50.943Z,94079.98
2019-01-29T16:43:19.344Z,94080.25
2019-01-29T16:45:48.237Z,94083.70
2019-01-29T16:48:16.631Z,94078.70
2019-01-29T16:50:44.429Z,94075.55
2019-01-29T16:53:11.931Z,94075.55
2019-01-29T16:55:39.497Z,94076.89
2019-01-29T16:58:07.562Z,94074.47
2019-01-29T17:00:35.960Z,94078.91
2019-01-29T17:03:04.019Z,94080.52
2019-01-29T17:05:31.770Z,94073.77
2019-01-29T17:07:59.919Z,94066.61
2019-01-29T17:10:27.896Z,94073.64
2019-01-29T17:12:55.803Z,94068.52
2019-01-29T17:15:25.459Z,94068.52
2019-01-29T17:17:53.281Z,94064.49
2019-01-29T17:20:23.950Z,94064.49
2019-01-29T17:22:51.742Z,94064.14
2019-01-29T17:25:19.539Z,94074.13
2019-01-29T17:27:47.286Z,94074.13
2019-01-29T17:30:35.821Z,94071.10
2019-01-29T17:33:06.460Z,94064.67
2019-01-29T17:35:35.542Z,94067.22
2019-01-29T17:38:04.118Z,94066.62
2019-01-29T17:40:32.098Z,94056.80
2019-01-29T17:43:02.367Z,94054.63
2019-01-29T17:45:32.666Z,94044.36
2019-01-29T17:48:00.645Z,94044.36
2019-01-29T17:50:30.759Z,94032.30
2019-01-29T17:52:58.416Z,94041.25
2019-01-29T17:55:27.825Z,94039.48
2019-01-29T17:57:55.840Z,94034.19
2019-01-29T18:00:28.367Z,94034.19
2019-01-29T18:02:56.251Z,94038.50
2019-01-29T18:05:24.202Z,94038.50
2019-01-29T18:07:51.989Z,94043.73
2019-01-29T18:10:20.129Z,94043.61
2019-01-29T18:12:48.175Z,94030.09
2019-01-29T18:15:18.349Z,94032.88
2019-01-29T18:17:48.205Z,94032.88
2019-01-29T18:20:16.274Z,94029.68
2019-01-29T18:22:44.453Z,94030.49
2019-01-29T18:25:12.611Z,94030.49
2019-01-29T18:27:40.577Z,94024.44
2019-01-29T18:30:21.204Z,94009.94
2019-01-29T18:32:49.127Z,94009.94
2019-01-29T18:35:17.152Z,94016.14
2019-01-29T18:37:45.124Z,94021.52
2019-01-29T18:40:19.226Z,94021.46
2019-01-29T18:42:48.202Z,94014.27
2019-01-29T18:45:16.206Z,94007.67
2019-01-29T18:47:44.224Z,94007.67
2019-01-29T18:50:14.655Z,94011.80
2019-01-29T18:52:42.581Z,94006.47
2019-01-29T18:55:10.743Z,94006.47
2019-01-29T18:57:39.763Z,94007.38
2019-01-29T19:00:16.530Z,94004.48
2019-01-29T19:02:45.586Z,94001.55
2019-01-29T19:05:13.609Z,94001.55
2019-01-29T19:07:41.648Z,93999.62
2019-01-29T19:10:12.255Z,93990.02
2019-01-29T19:12:40.119Z,93984.14
2019-01-29T19:15:10.790Z,93984.14
2019-01-29T19:17:40.037Z,93975.05
2019-01-29T19:20:08.711Z,93966.44
2019-01-29T19:22:37.283Z,93972.88
2019-01-29T19:25:06.862Z,93967.88
2019-01-29T19:27:35.399Z,93965.77
2019-01-29T19:30:05.572Z,93965.77
2019-01-29T19:32:34.082Z,93962.05
2019-01-29T19:35:02.044Z,93961.32
2019-01-29T19:37:31.013Z,93950.56
2019-01-29T19:39:59.127Z,93951.70
2019-01-29T19:42:27.903Z,93945.94
2019-01-29T19:44:56.153Z,93945.94
2019-01-29T19:47:24.180Z,93950.80
2019-01-29T19:49:52.207Z,93941.52
2019-01-29T19:52:20.216Z,93941.52
2019-01-29T19:54:48.234Z,93954.95
2019-01-29T19:57:16.377Z,93947.13
2019-01-29T19:59:44.418Z,93947.13
2019-01-29T20:02:12.492Z,93949.44
2019-01-29T20:04:40.506Z,93950.27
2019-01-29T20:07:09.387Z,93944.38
2019-01-29T20:09:37.363Z,93939.44
2019-01-29T20:12:06.738Z,93938.37
2019-01-29T20:14:34.722Z,93938.37
2019-01-29T20:17:05.221Z,93935.08
2019-01-29T20:19:33.198Z,93934.29
2019-01-29T20:22:01.043Z,93942.09
2019-01-29T20:24:29.923Z,93940.00
2019-01-29T20:26:57.901Z,93933.11
2019-01-29T20:29:25.846Z,93932.02
2019-01-29T20:31:54.354Z,93928.48
2019-01-29T20:34:22.474Z,93928.25
2019-01-29T20:36:50.479Z,93923.65
2019-01-29T20:39:18.510Z,93923.94
2019-01-29T20:41:47.650Z,93918.20
2019-01-29T20:44:16.068Z,93920.66
2019-01-29T20:46:43.949Z,93927.98
2019-01-29T20:49:11.966Z,93926.89
2019-01-29T20:51:39.901Z,93913.23
2019-01-29T20:54:07.839Z,93918.86
2019-01-29T20:56:35.729Z,93906.70
2019-01-29T20:59:03.665Z,93906.70
2019-01-29T21:01:31.635Z,93902.87
2019-01-29T21:03:59.575Z,93902.87
2019-01-29T21:06:27.490Z,93893.17
2019-01-29T21:08:55.493Z,93889.17
2019-01-29T21:11:23.456Z,93873.12
2019-01-29T21:13:51.302Z,93873.12
2019-01-29T21:16:19.410Z,93883.75
2019-01-29T21:18:47.174Z,93885.78
2019-01-29T21:21:15.160Z,93881.09
2019-01-29T21:23:43.229Z,93881.09
2019-01-29T21:26:12.112Z,93884.30
2019-01-29T21:28:39.923Z,93877.20
2019-01-29T21:31:08.167Z,93882.70
2019-01-29T21:33:36.050Z,93866.77
2019-01-29T21:36:03.963Z,93863.03
2019-01-29T21:38:31.918Z,93855.70
2019-01-29T21:40:59.594Z,93855.70
2019-01-29T21:43:27.179Z,93858.18
2019-01-29T21:45:54.779Z,93855.79
2019-01-29T21:48:22.315Z,93851.26
2019-01-29T21:50:50.018Z,93841.53
2019-01-29T21:53:17.450Z,93844.27
2019-01-29T21:55:44.858Z,93841.64
2019-01-29T21:58:12.379Z,93840.50
2019-01-29T22:00:44.339Z,93836.71
2019-01-29T22:03:12.860Z,93840.20
2019-01-29T22:05:40.287Z,93829.53
2019-01-29T22:08:08.982Z,93828.31
2019-01-29T22:10:36.405Z,93825.77
2019-01-29T22:13:05.367Z,93821.66
2019-01-29T22:15:32.750Z,93817.54
2019-01-29T22:18:00.257Z,93818.10
2019-01-29T22:20:27.640Z,93818.45
2019-01-29T22:22:54.990Z,93811.90
2019-01-29T22:25:22.582Z,93809.22
2019-01-29T22:27:50.085Z,93807.74
2019-01-29T22:30:20.438Z,93802.10
2019-01-29T22:32:47.786Z,93800.98
2019-01-29T22:35:15.294Z,93791.98
2019-01-29T22:37:42.714Z,93792.05
2019-01-29T22:40:13.218Z,93792.05
2019-01-29T22:42:40.599Z,93789.09
2019-01-29T22:45:09.277Z,93788.89
2019-01-29T22:47:36.665Z,93790.37
2019-01-29T22:50:06.785Z,93782.79
2019-01-29T22:52:34.287Z,93782.57
2019-01-29T22:55:01.695Z,93779.72
2019-01-29T22:57:29.057Z,93775.13
2019-01-29T22:59:56.487Z,93768.88
2019-01-29T23:02:23.854Z,93766.77
2019-01-29T23:04:51.214Z,93768.55
2019-01-29T23:07:24.617Z,93771.55
2019-01-29T23:09:51.999Z,93763.64
2019-01-29T23:12:19.366Z,93760.98
2019-01-29T23:14:46.857Z,93759.48
2019-01-29T23:17:14.274Z,93750.81
2019-01-29T23:19:41.662Z,93749.86
2019-01-29T23:22:09.107Z,93745.39
2019-01-29T23:24:36.473Z,93754.58
2019-01-29T23:27:04.061Z,93750.05
2019-01-29T23:29:31.439Z,93739.58
2019-01-29T23:31:58.808Z,93736.63
2019-01-29T23:34:26.205Z,93729.23
2019-01-29T23:36:53.554Z,93721.16
2019-01-29T23:39:20.934Z,93719.92
2019-01-29T23:41:48.315Z,93724.88
2019-01-29T23:44:15.795Z,93710.50
2019-01-29T23:46:43.249Z,93717.13
2019-01-29T23:49:10.643Z,93713.64
2019-01-29T23:51:38.035Z,93705.17
2019-01-29T23:54:05.554Z,93696.17
2019-01-29T23:56:32.966Z,93692.68
2019-01-29T23:59:00.346Z,93690.34
